createdAt,value
2017-10-02T00:00:52.327Z,24.40
2017-10-02T00:03:20.137Z,24.40
2017-10-02T00:05:47.931Z,24.50
2017-10-02T00:08:15.732Z,24.50
2017-10-02T00:10:43.598Z,24.50
2017-10-02T00:13:11.399Z,24.40
2017-10-02T00:15:39.961Z,24.50
2017-10-02T00:18:07.749Z,24.40
2017-10-02T00:20:36.331Z,24.40
2017-10-02T00:23:04.903Z,24.40
2017-10-02T00:25:32.728Z,24.40
2017-10-02T00:28:00.546Z,24.40
2017-10-02T00:30:29.172Z,24.40
2017-10-02T00:32:57.021Z,24.40
2017-10-02T00:35:24.867Z,24.30
2017-10-02T00:37:53.435Z,24.30
2017-10-02T00:40:22.130Z,24.40
2017-10-02T00:42:50.801Z,24.30
2017-10-02T00:45:18.666Z,24.30
2017-10-02T00:47:46.512Z,24.30
2017-10-02T00:50:14.390Z,24.30
2017-10-02T00:52:42.312Z,24.30
2017-10-02T00:55:10.150Z,24.30
2017-10-02T00:57:38.836Z,24.30
2017-10-02T01:00:07.500Z,24.30
2017-10-02T01:02:35.450Z,24.30
2017-10-02T01:05:03.296Z,24.30
2017-10-02T01:07:31.191Z,24.30
2017-10-02T01:09:59.050Z,24.30
2017-10-02T01:12:26.896Z,24.30
2017-10-02T01:14:54.886Z,24.30
2017-10-02T01:17:22.721Z,24.30
2017-10-02T01:19:50.565Z,24.30
2017-10-02T01:22:18.471Z,24.30
2017-10-02T01:24:46.386Z,24.20
2017-10-02T01:27:15.045Z,24.20
2017-10-02T01:29:42.967Z,24.20
2017-10-02T01:32:10.858Z,24.20
2017-10-02T01:34:38.684Z,24.20
2017-10-02T01:37:07.344Z,24.20
2017-10-02T01:39:35.986Z,24.20
2017-10-02T01:42:03.888Z,24.20
2017-10-02T01:44:32.590Z,24.10
2017-10-02T01:47:01.185Z,24.20
2017-10-02T01:49:29.809Z,24.10
2017-10-02T01:51:57.636Z,24.10
2017-10-02T01:54:26.431Z,24.10
2017-10-02T01:56:54.289Z,24.10
2017-10-02T01:59:22.152Z,24.10
2017-10-02T02:01:50.759Z,24.10
2017-10-02T02:04:18.637Z,24.10
2017-10-02T02:06:46.539Z,24.10
2017-10-02T02:09:14.452Z,24.20
2017-10-02T02:11:42.307Z,24.10
2017-10-02T02:14:10.902Z,24.10
2017-10-02T02:16:38.772Z,24.10
2017-10-02T02:19:06.797Z,24.10
2017-10-02T02:21:34.674Z,24.10
2017-10-02T02:24:02.533Z,24.10
2017-10-02T02:26:30.370Z,24.10
2017-10-02T02:28:58.270Z,24.00
2017-10-02T02:31:26.120Z,24.10
2017-10-02T02:33:53.981Z,24.10
2017-10-02T02:36:21.834Z,24.10
2017-10-02T02:38:49.638Z,24.10
2017-10-02T02:41:18.223Z,24.00
2017-10-02T02:43:46.066Z,24.00
2017-10-02T02:46:13.959Z,24.00
2017-10-02T02:48:42.624Z,24.00
2017-10-02T02:51:10.464Z,24.00
2017-10-02T02:53:38.362Z,24.00
2017-10-02T02:56:06.211Z,24.00
2017-10-02T02:58:34.059Z,24.00
2017-10-02T03:01:01.959Z,24.00
2017-10-02T03:03:29.804Z,24.00
2017-10-02T03:05:57.654Z,24.00
2017-10-02T03:08:25.597Z,24.00
2017-10-02T03:10:53.520Z,24.00
2017-10-02T03:13:21.347Z,24.00
2017-10-02T03:15:49.206Z,24.00
2017-10-02T03:18:17.104Z,24.00
2017-10-02T03:20:44.975Z,24.00
2017-10-02T03:23:12.846Z,24.00
2017-10-02T03:25:40.742Z,24.00
2017-10-02T03:28:09.383Z,24.00
2017-10-02T03:30:37.234Z,24.00
2017-10-02T03:33:05.136Z,24.00
2017-10-02T03:35:32.948Z,24.00
2017-10-02T03:38:00.833Z,24.00
2017-10-02T03:40:28.676Z,24.00
2017-10-02T03:42:57.282Z,24.00
2017-10-02T03:45:25.228Z,23.90
2017-10-02T03:47:53.112Z,24.00
2017-10-02T03:50:20.935Z,24.00
2017-10-02T03:52:48.759Z,24.00
2017-10-02T03:55:16.687Z,23.90
2017-10-02T03:57:44.539Z,23.90
2017-10-02T04:00:13.477Z,23.90
2017-10-02T04:02:41.366Z,23.90
2017-10-02T04:05:09.244Z,23.90
2017-10-02T04:07:37.106Z,23.90
2017-10-02T04:10:05.029Z,23.90
2017-10-02T04:12:32.888Z,23.90
2017-10-02T04:15:00.737Z,23.90
2017-10-02T04:17:29.348Z,23.90
2017-10-02T04:19:57.156Z,23.90
2017-10-02T04:22:25.040Z,23.90
2017-10-02T04:24:53.715Z,23.90
2017-10-02T04:27:21.546Z,23.90
2017-10-02T04:29:49.438Z,23.90
2017-10-02T04:32:17.369Z,23.90
2017-10-02T04:34:45.292Z,23.90
2017-10-02T04:37:13.883Z,23.80
2017-10-02T04:39:41.731Z,23.90
2017-10-02T04:42:09.619Z,23.80
2017-10-02T04:44:38.259Z,23.80
2017-10-02T04:47:06.205Z,23.80
2017-10-02T04:49:34.072Z,23.80
2017-10-02T04:52:01.931Z,23.80
2017-10-02T04:54:29.826Z,23.80
2017-10-02T04:56:57.738Z,23.90
2017-10-02T04:59:26.365Z,23.80
2017-10-02T05:01:54.364Z,23.80
2017-10-02T05:04:22.189Z,23.80
2017-10-02T05:06:50.047Z,23.80
2017-10-02T05:09:17.959Z,23.80
2017-10-02T05:11:45.846Z,23.80
2017-10-02T05:14:14.473Z,23.80
2017-10-02T05:16:42.369Z,23.80
2017-10-02T05:19:10.352Z,23.80
2017-10-02T05:21:38.282Z,23.80
2017-10-02T05:24:06.208Z,23.80
2017-10-02T05:26:34.835Z,23.80
2017-10-02T05:29:02.708Z,23.70
2017-10-02T05:31:30.530Z,23.70
2017-10-02T05:33:59.115Z,23.70
2017-10-02T05:36:27.711Z,23.80
2017-10-02T05:38:55.601Z,23.80
2017-10-02T05:41:23.525Z,23.80
2017-10-02T05:43:51.369Z,23.70
2017-10-02T05:46:19.212Z,23.70
2017-10-02T05:48:47.036Z,23.70
2017-10-02T05:51:15.667Z,23.70
2017-10-02T05:53:43.525Z,23.70
2017-10-02T05:56:11.351Z,23.70
2017-10-02T05:58:39.234Z,23.70
2017-10-02T06:01:07.116Z,23.70
2017-10-02T06:03:35.036Z,23.70
2017-10-02T06:06:03.676Z,23.60
2017-10-02T06:08:31.544Z,23.60
2017-10-02T06:10:59.459Z,23.60
2017-10-02T06:13:28.433Z,23.60
2017-10-02T06:15:56.301Z,23.60
2017-10-02T06:18:24.257Z,23.60
2017-10-02T06:20:52.166Z,23.60
2017-10-02T06:23:20.921Z,23.60
2017-10-02T06:25:48.875Z,23.50
2017-10-02T06:28:16.711Z,23.60
2017-10-02T06:30:44.646Z,23.60
2017-10-02T06:33:13.277Z,23.50
2017-10-02T06:35:41.148Z,23.50
2017-10-02T06:38:08.959Z,23.60
2017-10-02T06:40:37.581Z,23.60
2017-10-02T06:43:05.464Z,23.60
2017-10-02T06:45:33.383Z,23.60
2017-10-02T06:48:01.246Z,23.60
2017-10-02T06:50:29.845Z,23.60
2017-10-02T06:52:57.711Z,23.60
2017-10-02T06:55:25.570Z,23.60
2017-10-02T06:57:54.257Z,23.70
2017-10-02T07:00:22.836Z,23.70
2017-10-02T07:02:51.464Z,23.70
2017-10-02T07:05:19.320Z,23.70
2017-10-02T07:07:47.187Z,23.70
2017-10-02T07:10:15.067Z,23.70
2017-10-02T07:12:42.908Z,23.70
2017-10-02T07:15:11.524Z,23.70
2017-10-02T07:17:39.426Z,23.70
2017-10-02T07:20:08.037Z,23.80
2017-10-02T07:22:35.950Z,23.80
2017-10-02T07:25:03.876Z,23.80
2017-10-02T07:27:31.730Z,23.90
2017-10-02T07:30:00.340Z,24.00
2017-10-02T07:32:28.309Z,23.90
2017-10-02T07:34:56.166Z,24.00
2017-10-02T07:37:24.182Z,24.00
2017-10-02T07:39:52.054Z,24.00
2017-10-02T07:42:20.011Z,24.00
2017-10-02T07:44:47.952Z,24.10
2017-10-02T07:47:15.827Z,24.20
2017-10-02T07:49:43.648Z,24.10
2017-10-02T07:52:12.268Z,24.20
2017-10-02T07:54:40.096Z,24.10
2017-10-02T07:57:08.771Z,24.20
2017-10-02T07:59:37.413Z,24.30
2017-10-02T08:02:05.338Z,24.30
2017-10-02T08:04:33.294Z,24.40
2017-10-02T08:07:01.235Z,24.50
2017-10-02T08:09:29.060Z,24.50
2017-10-02T08:11:56.915Z,24.50
2017-10-02T08:14:24.846Z,24.50
2017-10-02T08:16:53.552Z,24.50
2017-10-02T08:19:22.223Z,24.50
2017-10-02T08:21:50.054Z,24.50
2017-10-02T08:24:17.999Z,24.50
2017-10-02T08:26:45.861Z,24.50
2017-10-02T08:29:13.712Z,24.50
2017-10-02T08:31:42.337Z,24.50
2017-10-02T08:34:10.294Z,24.50
2017-10-02T08:36:38.213Z,24.60
2017-10-02T08:39:06.941Z,24.80
2017-10-02T08:41:34.858Z,24.80
2017-10-02T08:44:02.722Z,24.80
2017-10-02T08:46:30.546Z,24.90
2017-10-02T08:48:59.222Z,25.10
2017-10-02T08:51:27.218Z,25.10
2017-10-02T08:53:55.121Z,25.20
2017-10-02T08:56:23.778Z,25.40
2017-10-02T08:58:51.702Z,25.40
2017-10-02T09:01:19.581Z,25.40
2017-10-02T09:03:47.434Z,25.40
2017-10-02T09:06:15.437Z,25.50
2017-10-02T09:08:43.280Z,25.60
2017-10-02T09:11:11.181Z,25.70
2017-10-02T09:13:39.033Z,25.70
2017-10-02T09:16:06.939Z,25.70
2017-10-02T09:18:35.776Z,25.90
2017-10-02T09:21:03.670Z,25.90
2017-10-02T09:23:31.590Z,26.00
2017-10-02T09:25:59.432Z,26.10
2017-10-02T09:28:27.267Z,26.10
2017-10-02T09:30:55.093Z,26.30
2017-10-02T09:33:23.037Z,26.30
2017-10-02T09:35:51.729Z,26.60
2017-10-02T09:38:21.217Z,26.70
2017-10-02T09:40:49.102Z,26.70
2017-10-02T09:43:17.771Z,26.80
2017-10-02T09:45:45.924Z,26.80
2017-10-02T09:48:13.739Z,26.80
2017-10-02T09:50:41.603Z,26.90
2017-10-02T09:53:09.584Z,26.80
2017-10-02T09:55:37.507Z,26.90
2017-10-02T09:58:06.148Z,26.90
2017-10-02T10:00:34.745Z,26.90
2017-10-02T10:03:02.866Z,26.90
2017-10-02T10:05:31.447Z,27.00
2017-10-02T10:08:00.852Z,27.10
2017-10-02T10:10:29.440Z,27.10
2017-10-02T10:12:58.276Z,27.10
2017-10-02T10:15:26.128Z,27.10
2017-10-02T10:17:53.997Z,27.10
2017-10-02T10:20:21.903Z,27.10
2017-10-02T10:22:50.206Z,27.10
2017-10-02T10:25:18.065Z,27.00
2017-10-02T10:27:46.831Z,27.00
2017-10-02T10:30:14.752Z,27.00
2017-10-02T10:32:42.773Z,27.00
2017-10-02T10:35:10.656Z,27.00
2017-10-02T10:37:39.251Z,27.10
2017-10-02T10:40:07.132Z,27.00
2017-10-02T10:42:34.975Z,27.10
2017-10-02T10:45:03.608Z,27.10
2017-10-02T10:47:31.532Z,27.10
2017-10-02T10:49:59.387Z,27.20
2017-10-02T10:52:28.194Z,27.20
2017-10-02T10:54:56.133Z,27.20
2017-10-02T10:57:24.065Z,27.30
2017-10-02T10:59:52.135Z,27.30
2017-10-02T11:02:20.046Z,27.20
2017-10-02T11:04:48.668Z,27.10
2017-10-02T11:07:16.570Z,27.10
2017-10-02T11:09:44.433Z,27.00
2017-10-02T11:12:12.319Z,27.00
2017-10-02T11:14:40.146Z,27.10
2017-10-02T11:17:08.053Z,27.10
2017-10-02T11:19:36.079Z,27.00
2017-10-02T11:22:03.978Z,27.10
2017-10-02T11:24:32.077Z,27.10
2017-10-02T11:27:00.803Z,27.00
2017-10-02T11:29:28.670Z,27.00
2017-10-02T11:31:56.516Z,27.10
2017-10-02T11:34:24.395Z,27.10
2017-10-02T11:36:52.231Z,27.10
2017-10-02T11:39:20.841Z,27.00
2017-10-02T11:41:48.701Z,27.00
2017-10-02T11:44:16.570Z,26.90
2017-10-02T11:46:44.462Z,27.00
2017-10-02T11:49:12.327Z,26.90
2017-10-02T11:51:40.216Z,26.80
2017-10-02T11:54:08.198Z,26.80
2017-10-02T11:56:36.135Z,26.80
2017-10-02T11:59:04.576Z,26.80
2017-10-02T12:01:32.422Z,26.80
2017-10-02T12:04:01.163Z,26.80
2017-10-02T12:06:29.117Z,26.70
2017-10-02T12:08:57.052Z,26.70
2017-10-02T12:11:25.715Z,26.80
2017-10-02T12:13:54.348Z,26.80
2017-10-02T12:16:22.224Z,26.80
2017-10-02T12:18:50.128Z,26.90
2017-10-02T12:21:17.950Z,26.80
2017-10-02T12:23:45.825Z,26.80
2017-10-02T12:26:13.661Z,26.80
2017-10-02T12:28:41.628Z,26.80
2017-10-02T12:31:10.316Z,26.70
2017-10-02T12:33:38.283Z,26.70
2017-10-02T12:36:06.903Z,26.60
2017-10-02T12:40:11.047Z,26.60
2017-10-02T12:42:39.345Z,26.50
2017-10-02T12:45:07.973Z,26.40
2017-10-02T12:47:35.828Z,26.40
2017-10-02T12:50:03.755Z,26.40
2017-10-02T12:52:31.601Z,26.40
2017-10-02T12:54:59.574Z,26.40
2017-10-02T12:57:27.503Z,26.40
2017-10-02T12:59:55.671Z,26.40
2017-10-02T13:02:23.533Z,26.50
2017-10-02T13:04:51.479Z,26.50
2017-10-02T13:07:20.059Z,26.60
2017-10-02T13:09:48.017Z,26.60
2017-10-02T13:12:15.889Z,26.60
2017-10-02T13:14:43.788Z,26.60
2017-10-02T13:17:12.360Z,26.60
2017-10-02T13:19:41.145Z,26.60
2017-10-02T13:22:09.775Z,26.60
2017-10-02T13:24:37.689Z,26.60
2017-10-02T13:27:06.306Z,26.60
2017-10-02T13:29:34.251Z,26.60
2017-10-02T13:32:02.087Z,26.60
2017-10-02T13:34:30.352Z,26.50
2017-10-02T13:36:58.376Z,26.50
2017-10-02T13:39:26.581Z,26.40
2017-10-02T13:41:55.252Z,26.40
2017-10-02T13:44:23.768Z,26.50
2017-10-02T13:46:52.448Z,26.30
2017-10-02T13:49:20.295Z,26.30
2017-10-02T13:51:48.176Z,26.30
2017-10-02T13:54:16.109Z,26.20
2017-10-02T13:56:44.757Z,26.20
2017-10-02T13:59:12.613Z,26.20
2017-10-02T14:01:41.884Z,26.30
2017-10-02T14:04:10.040Z,26.40
2017-10-02T14:06:37.969Z,26.30
2017-10-02T14:09:05.951Z,26.30
2017-10-02T14:11:33.917Z,26.30
2017-10-02T14:14:02.781Z,26.30
2017-10-02T14:16:30.602Z,26.30
2017-10-02T14:18:58.494Z,26.30
2017-10-02T14:21:26.392Z,26.30
2017-10-02T14:23:55.194Z,26.30
2017-10-02T14:26:23.816Z,26.40
2017-10-02T14:28:51.800Z,26.40
2017-10-02T14:31:19.630Z,26.40
2017-10-02T14:33:47.452Z,26.50
2017-10-02T14:36:15.316Z,26.50
2017-10-02T14:38:43.130Z,26.60
2017-10-02T14:41:11.748Z,26.60
2017-10-02T14:43:40.405Z,26.60
2017-10-02T14:46:08.451Z,26.60
2017-10-02T14:48:37.068Z,26.60
2017-10-02T14:51:04.891Z,26.60
2017-10-02T14:53:33.490Z,26.60
2017-10-02T14:56:02.198Z,26.60
2017-10-02T14:58:30.202Z,26.60
2017-10-02T15:00:59.582Z,26.60
2017-10-02T15:03:28.895Z,26.50
2017-10-02T15:05:56.741Z,26.40
2017-10-02T15:08:24.622Z,26.30
2017-10-02T15:10:52.665Z,26.30
2017-10-02T15:13:20.630Z,26.30
2017-10-02T15:15:48.765Z,26.30
2017-10-02T15:18:16.687Z,26.30
2017-10-02T15:20:44.671Z,26.30
2017-10-02T15:23:12.509Z,26.20
2017-10-02T15:25:41.522Z,26.20
2017-10-02T15:28:09.397Z,26.10
2017-10-02T15:30:37.351Z,26.10
2017-10-02T15:33:06.210Z,26.10
2017-10-02T15:35:35.104Z,26.00
2017-10-02T15:38:03.048Z,26.00
2017-10-02T15:40:30.964Z,26.00
2017-10-02T15:42:58.804Z,26.00
2017-10-02T15:45:26.735Z,26.00
2017-10-02T15:47:54.576Z,26.00
2017-10-02T15:50:22.483Z,26.00
2017-10-02T15:52:51.133Z,26.00
2017-10-02T15:55:19.021Z,26.10
2017-10-02T15:57:46.937Z,26.00
2017-10-02T16:00:14.899Z,26.00
2017-10-02T16:02:42.731Z,26.00
2017-10-02T16:05:10.619Z,26.00
2017-10-02T16:07:39.429Z,26.00
2017-10-02T16:10:07.235Z,26.00
2017-10-02T16:12:35.118Z,26.00
2017-10-02T16:15:02.970Z,26.00
2017-10-02T16:17:30.805Z,26.00
2017-10-02T16:19:59.565Z,26.00
2017-10-02T16:22:27.439Z,25.90
2017-10-02T16:24:55.289Z,26.00
2017-10-02T16:27:23.970Z,26.00
2017-10-02T16:29:52.647Z,26.00
2017-10-02T16:32:21.295Z,26.00
2017-10-02T16:34:49.246Z,26.00
2017-10-02T16:37:17.112Z,26.00
2017-10-02T16:39:44.948Z,26.00
2017-10-02T16:42:13.675Z,26.00
2017-10-02T16:44:41.530Z,26.00
2017-10-02T16:47:09.415Z,26.00
2017-10-02T16:49:37.243Z,25.90
2017-10-02T16:52:05.110Z,25.90
2017-10-02T16:54:32.999Z,25.90
2017-10-02T16:57:02.023Z,25.90
2017-10-02T16:59:30.044Z,25.90
2017-10-02T17:01:58.085Z,25.90
2017-10-02T17:04:25.877Z,25.90
2017-10-02T17:06:54.171Z,25.90
2017-10-02T17:09:22.107Z,25.90
2017-10-02T17:11:50.810Z,25.90
2017-10-02T17:14:18.717Z,25.90
2017-10-02T17:16:47.012Z,25.90
2017-10-02T17:19:14.876Z,25.90
2017-10-02T17:21:42.746Z,25.90
2017-10-02T17:24:10.719Z,25.90
2017-10-02T17:26:39.400Z,25.80
2017-10-02T17:29:07.199Z,25.80
2017-10-02T17:31:36.176Z,25.80
2017-10-02T17:34:04.783Z,25.80
2017-10-02T17:36:32.715Z,25.80
2017-10-02T17:39:00.603Z,25.80
2017-10-02T17:41:29.212Z,25.70
2017-10-02T17:43:57.129Z,25.70
2017-10-02T17:46:25.084Z,25.70
2017-10-02T17:48:53.695Z,25.70
2017-10-02T17:51:22.302Z,25.70
2017-10-02T17:53:50.184Z,25.70
2017-10-02T17:56:18.081Z,25.70
2017-10-02T17:58:45.926Z,25.70
2017-10-02T18:01:14.639Z,25.60
2017-10-02T18:03:42.496Z,25.60
2017-10-02T18:06:10.306Z,25.60
2017-10-02T18:08:38.959Z,25.60
2017-10-02T18:11:06.777Z,25.60
2017-10-02T18:13:34.841Z,25.60
2017-10-02T18:16:02.719Z,25.50
2017-10-02T18:18:30.552Z,25.50
2017-10-02T18:20:58.557Z,25.60
2017-10-02T18:23:27.263Z,25.50
2017-10-02T18:25:55.076Z,25.50
2017-10-02T18:28:23.760Z,25.50
2017-10-02T18:30:51.618Z,25.50
2017-10-02T18:33:20.249Z,25.50
2017-10-02T18:35:48.104Z,25.50
2017-10-02T18:38:15.936Z,25.50
2017-10-02T18:40:44.585Z,25.50
2017-10-02T18:43:12.975Z,25.50
2017-10-02T18:45:40.909Z,25.60
2017-10-02T18:48:08.820Z,25.60
2017-10-02T18:50:36.646Z,25.50
2017-10-02T18:53:04.801Z,25.50
2017-10-02T18:55:32.692Z,25.60
2017-10-02T18:58:00.612Z,25.50
2017-10-02T19:00:29.240Z,25.50
2017-10-02T19:02:57.180Z,25.50
2017-10-02T19:05:25.059Z,25.50
2017-10-02T19:07:52.947Z,25.50
2017-10-02T19:10:20.879Z,25.50
2017-10-02T19:12:48.753Z,25.50
2017-10-02T19:15:16.767Z,25.50
2017-10-02T19:17:44.661Z,25.60
2017-10-02T19:20:13.291Z,25.50
2017-10-02T19:22:41.278Z,25.50
2017-10-02T19:25:09.183Z,25.50
2017-10-02T19:27:37.117Z,25.50
2017-10-02T19:30:05.062Z,25.50
2017-10-02T19:32:33.054Z,25.50
2017-10-02T19:35:01.058Z,25.50
2017-10-02T19:37:29.689Z,25.50
2017-10-02T19:39:57.545Z,25.50
2017-10-02T19:42:25.416Z,25.50
2017-10-02T19:44:53.242Z,25.50
2017-10-02T19:47:21.908Z,25.50
2017-10-02T19:49:49.757Z,25.50
2017-10-02T19:52:17.655Z,25.50
2017-10-02T19:54:49.571Z,25.50
2017-10-02T19:57:19.570Z,25.50
2017-10-02T19:59:47.506Z,25.50
2017-10-02T20:02:16.194Z,25.50
2017-10-02T20:04:44.886Z,25.50
2017-10-02T20:07:13.661Z,25.50
2017-10-02T20:09:42.416Z,25.50
2017-10-02T20:12:11.791Z,25.50
2017-10-02T20:14:39.666Z,25.50
2017-10-02T20:17:07.592Z,25.50
2017-10-02T20:19:36.602Z,25.50
2017-10-02T20:22:04.669Z,25.50
2017-10-02T20:24:32.723Z,25.50
2017-10-02T20:27:01.587Z,25.50
2017-10-02T20:29:31.827Z,25.40
2017-10-02T20:31:59.676Z,25.50
2017-10-02T20:34:30.884Z,25.50
2017-10-02T20:36:58.992Z,25.50
2017-10-02T20:39:27.856Z,25.40
2017-10-02T20:41:55.744Z,25.50
2017-10-02T20:44:23.894Z,25.40
2017-10-02T20:46:51.775Z,25.40
2017-10-02T20:49:20.419Z,25.40
2017-10-02T20:51:48.280Z,25.40
2017-10-02T20:54:16.929Z,25.30
2017-10-02T20:56:44.787Z,25.30
2017-10-02T20:59:12.628Z,25.30
2017-10-02T21:01:41.138Z,25.30
2017-10-02T21:04:09.057Z,25.30
2017-10-02T21:06:36.978Z,25.30
2017-10-02T21:09:04.922Z,25.20
2017-10-02T21:11:32.834Z,25.30
2017-10-02T21:14:01.466Z,25.20
2017-10-02T21:16:29.364Z,25.20
2017-10-02T21:18:57.265Z,25.30
2017-10-02T21:21:25.908Z,25.20
2017-10-02T21:23:53.721Z,25.20
2017-10-02T21:26:21.831Z,25.20
2017-10-02T21:28:49.731Z,25.20
2017-10-02T21:31:18.426Z,25.20
2017-10-02T21:33:46.483Z,25.20
2017-10-02T21:36:14.335Z,25.20
2017-10-02T21:38:42.364Z,25.20
2017-10-02T21:41:10.277Z,25.10
2017-10-02T21:43:38.078Z,25.20
2017-10-02T21:46:06.957Z,25.10
2017-10-02T21:48:34.865Z,25.10
2017-10-02T21:51:03.868Z,25.20
2017-10-02T21:53:31.700Z,25.10
2017-10-02T21:56:01.862Z,25.20
2017-10-02T21:58:29.815Z,25.10
2017-10-02T22:00:58.739Z,25.10
2017-10-02T22:03:26.652Z,25.10
2017-10-02T22:05:54.859Z,25.10
2017-10-02T22:08:22.767Z,25.10
2017-10-02T22:10:51.442Z,25.10
2017-10-02T22:13:19.379Z,25.10
2017-10-02T22:15:47.325Z,25.20
2017-10-02T22:18:16.013Z,25.20
2017-10-02T22:20:43.870Z,25.20
2017-10-02T22:23:11.709Z,25.20
2017-10-02T22:25:40.472Z,25.20
2017-10-02T22:28:08.352Z,25.20
2017-10-02T22:30:36.209Z,25.20
2017-10-02T22:33:04.036Z,25.20
2017-10-02T22:35:31.871Z,25.20
2017-10-02T22:38:00.455Z,25.20
2017-10-02T22:40:29.076Z,25.20
2017-10-02T22:42:56.945Z,25.20
2017-10-02T22:45:24.813Z,25.30
2017-10-02T22:47:52.664Z,25.20
2017-10-02T22:50:20.551Z,25.30
2017-10-02T22:52:48.399Z,25.20
2017-10-02T22:55:16.244Z,25.20
2017-10-02T22:57:44.085Z,25.20
2017-10-02T23:00:12.717Z,25.20
2017-10-02T23:02:40.596Z,25.20
2017-10-02T23:05:08.578Z,25.20
2017-10-02T23:07:36.483Z,25.20
2017-10-02T23:10:05.062Z,25.10
2017-10-02T23:12:34.182Z,25.10
2017-10-02T23:15:01.998Z,25.10
2017-10-02T23:17:30.903Z,25.10
2017-10-02T23:19:58.874Z,25.10
2017-10-02T23:22:26.796Z,25.10
2017-10-02T23:24:54.710Z,25.10
2017-10-02T23:27:22.790Z,25.10
2017-10-02T23:29:51.409Z,25.10
2017-10-02T23:32:19.403Z,25.10
2017-10-02T23:34:47.326Z,25.10
2017-10-02T23:37:15.957Z,25.10
2017-10-02T23:39:43.789Z,25.10
2017-10-02T23:42:11.638Z,25.00
2017-10-02T23:44:40.383Z,25.00
2017-10-02T23:47:09.283Z,25.00
2017-10-02T23:49:37.151Z,25.00
2017-10-02T23:52:05.562Z,25.00
2017-10-02T23:54:34.179Z,25.00
2017-10-02T23:57:02.688Z,24.90
2017-10-02T23:59:30.607Z,25.00
